Rostov Na Donu — UGNT — position and weather

sailwx.info

Track history (hours):
 
Tides and Currents Weather Stations Pressure Air Temp Water Temp Dewpoint Dewpoint Depression Visibility Wind Speed Wind Dir Waves Ship Positions

Rostov Na Donu

Last reported at 2017-Oct-22 12:02 UTC. Time now 2017-Oct-22 13:41 UTC.
Position N 45°08' E 036°33'.

Length 139 m; draft 3.8 m.

Type: Cargo ship. MMSI: 273429570.

Date/timePositionNaut miles runAvg speedWind from/ knotsBaromVisibWave heightAir tempDewpointWater temp
2017-Oct-22 12:02N 45°08' E 036°33'0 0.3
2017-Oct-22 11:32N 45°08' E 036°33'0 0.2
2017-Oct-22 11:02N 45°08' E 036°33'0 0.1
2017-Oct-22 10:59N 45°08' E 036°33'0 0.0
2017-Oct-22 10:26N 45°08' E 036°33'0 0.1
2017-Oct-22 09:47N 45°08' E 036°33'0 0.1
2017-Oct-22 07:20N 45°08' E 036°33'0 0.2
2017-Oct-22 06:47N 45°09' E 036°33'0 0.1
2017-Oct-22 06:11N 45°09' E 036°33'0 0.1
2017-Oct-22 05:53N 45°09' E 036°33'0 0.0
2017-Oct-22 05:29N 45°09' E 036°33'0 0.1
2017-Oct-22 04:59N 45°09' E 036°33'0 0.1
2017-Oct-22 04:29N 45°09' E 036°33'0 0.1
2017-Oct-22 02:14N 45°08' E 036°33'0 0.0
2017-Oct-22 01:50N 45°08' E 036°33'0 0.0
2017-Oct-22 01:26N 45°08' E 036°33'0 0.0
2017-Oct-22 00:08N 45°08' E 036°33'0 0.0
2017-Oct-21 23:41N 45°08' E 036°33'0 0.1
2017-Oct-21 23:29N 45°09' E 036°33'0 0.0
2017-Oct-21 23:00N 45°09' E 036°33'4 4.3
2017-Oct-21 21:59N 45°11' E 036°28'4 7.0
2017-Oct-21 21:28N 45°15' E 036°28'3 6.8
2017-Oct-21 21:01N 45°18' E 036°29'4 7.0
2017-Oct-21 20:30N 45°19' E 036°34'3 7.0
2017-Oct-21 20:00N 45°21' E 036°38'3 6.8
2017-Oct-21 19:30N 45°24' E 036°40'4 7.2
2017-Oct-21 19:00N 45°27' E 036°39'1 2.4
2017-Oct-21 18:29N 45°28' E 036°39'0 0.0
2017-Oct-21 17:59N 45°28' E 036°39'0 0.0
2017-Oct-21 17:29N 45°28' E 036°39'0 0.0
2017-Oct-21 16:59N 45°28' E 036°39'0 0.0
2017-Oct-21 16:29N 45°28' E 036°39'0 0.0
2017-Oct-21 15:59N 45°28' E 036°39'0 0.0
2017-Oct-21 15:29N 45°28' E 036°39'0 0.0
2017-Oct-21 14:59N 45°28' E 036°38'0 0.0
2017-Oct-21 14:29N 45°28' E 036°38'0 0.1
2017-Oct-21 13:30N 45°28' E 036°39'3 6.8
2017-Oct-21 13:00N 45°31' E 036°41'4 7.4
2017-Oct-21 12:29N 45°35' E 036°44'  
2017-Oct-13 22:35N 45°31' E 036°46'1 7.1
2017-Oct-13 22:30N 45°31' E 036°46'4 7.6
2017-Oct-13 22:00N 45°28' E 036°42'4 8.0
2017-Oct-13 21:30N 45°24' E 036°41'4 7.4
2017-Oct-13 21:00N 45°21' E 036°38'4 7.4
2017-Oct-13 20:30N 45°19' E 036°33'3 6.9
2017-Oct-13 20:00N 45°17' E 036°29'4 7.2
2017-Oct-13 19:30N 45°14' E 036°29'3 6.9
2017-Oct-13 19:00N 45°10' E 036°29'4 6.5
2017-Oct-13 18:23N 45°07' E 036°32'1 1.4
2017-Oct-13 17:59N 45°06' E 036°32'0 0.0
2017-Oct-13 17:23N 45°06' E 036°32'0 0.0
2017-Oct-13 15:11N 45°06' E 036°32'0 0.1
2017-Oct-13 14:59N 45°06' E 036°32'0 0.0
2017-Oct-13 13:44N 45°06' E 036°32'0 0.1
2017-Oct-13 13:26N 45°06' E 036°32'0 0.0
2017-Oct-13 12:11N 45°06' E 036°32'0 0.0
2017-Oct-13 10:56N 45°06' E 036°32'0 0.0
2017-Oct-13 09:23N 45°06' E 036°32'0 0.0
2017-Oct-13 08:20N 45°06' E 036°32'0 0.0
2017-Oct-13 07:35N 45°06' E 036°32'0 0.0
2017-Oct-13 07:20N 45°06' E 036°32'0 0.0
2017-Oct-13 06:50N 45°06' E 036°32'0 0.0
2017-Oct-13 06:23N 45°06' E 036°32'0 0.0
2017-Oct-13 05:59N 45°06' E 036°32'0 0.0
2017-Oct-13 05:26N 45°06' E 036°32'0 0.0
2017-Oct-13 04:59N 45°06' E 036°32'0 0.0
2017-Oct-13 01:04N 45°06' E 036°32'0 0.5
2017-Oct-13 01:00N 45°06' E 036°32'1 1.4
2017-Oct-13 00:25N 45°07' E 036°33'2 4.6
2017-Oct-13 00:00N 45°09' E 036°33'0 0.4
2017-Oct-12 23:28N 45°09' E 036°33'0 0.0
2017-Oct-12 21:43N 45°09' E 036°33'0 0.0
2017-Oct-12 21:25N 45°09' E 036°33'0 0.0
2017-Oct-12 20:16N 45°09' E 036°33'0 0.0
2017-Oct-12 19:58N 45°09' E 036°33'0 0.0
2017-Oct-12 18:13N 45°09' E 036°33'0 0.0
2017-Oct-12 17:52N 45°09' E 036°33'0 0.0
2017-Oct-12 16:22N 45°09' E 036°33'0 0.0
2017-Oct-12 14:46N 45°09' E 036°33'0 0.0
2017-Oct-12 14:28N 45°09' E 036°33'0 0.0
2017-Oct-12 13:55N 45°09' E 036°33'0 0.0
2017-Oct-12 13:28N 45°09' E 036°33'  
Track history (hours):
 
Tides and Currents Weather Stations Pressure Air Temp Water Temp Dewpoint Dewpoint Depression Visibility Wind Speed Wind Dir Waves Ship Positions

Rostov Na Donu

Last reported at 2017-Oct-22 12:02 UTC. Time now 2017-Oct-22 13:41 UTC.
Position N 45°08' E 036°33'.

Length 139 m; draft 3.8 m.

Type: Cargo ship. MMSI: 273429570.

Date/timePositionNaut miles runAvg speedWind from/ knotsBaromVisibWave heightAir tempDewpointWater temp
2017-Oct-22 12:02N 45°08' E 036°33'0 0.3
2017-Oct-22 11:32N 45°08' E 036°33'0 0.2
2017-Oct-22 11:02N 45°08' E 036°33'0 0.1
2017-Oct-22 10:59N 45°08' E 036°33'0 0.0
2017-Oct-22 10:26N 45°08' E 036°33'0 0.1
2017-Oct-22 09:47N 45°08' E 036°33'0 0.1
2017-Oct-22 07:20N 45°08' E 036°33'0 0.2
2017-Oct-22 06:47N 45°09' E 036°33'0 0.1
2017-Oct-22 06:11N 45°09' E 036°33'0 0.1
2017-Oct-22 05:53N 45°09' E 036°33'0 0.0
2017-Oct-22 05:29N 45°09' E 036°33'0 0.1
2017-Oct-22 04:59N 45°09' E 036°33'0 0.1
2017-Oct-22 04:29N 45°09' E 036°33'0 0.1
2017-Oct-22 02:14N 45°08' E 036°33'0 0.0
2017-Oct-22 01:50N 45°08' E 036°33'0 0.0
2017-Oct-22 01:26N 45°08' E 036°33'0 0.0
2017-Oct-22 00:08N 45°08' E 036°33'0 0.0
2017-Oct-21 23:41N 45°08' E 036°33'0 0.1
2017-Oct-21 23:29N 45°09' E 036°33'0 0.0
2017-Oct-21 23:00N 45°09' E 036°33'4 4.3
2017-Oct-21 21:59N 45°11' E 036°28'4 7.0
2017-Oct-21 21:28N 45°15' E 036°28'3 6.8
2017-Oct-21 21:01N 45°18' E 036°29'4 7.0
2017-Oct-21 20:30N 45°19' E 036°34'3 7.0
2017-Oct-21 20:00N 45°21' E 036°38'3 6.8
2017-Oct-21 19:30N 45°24' E 036°40'4 7.2
2017-Oct-21 19:00N 45°27' E 036°39'1 2.4
2017-Oct-21 18:29N 45°28' E 036°39'0 0.0
2017-Oct-21 17:59N 45°28' E 036°39'0 0.0
2017-Oct-21 17:29N 45°28' E 036°39'0 0.0
2017-Oct-21 16:59N 45°28' E 036°39'0 0.0
2017-Oct-21 16:29N 45°28' E 036°39'0 0.0
2017-Oct-21 15:59N 45°28' E 036°39'0 0.0
2017-Oct-21 15:29N 45°28' E 036°39'0 0.0
2017-Oct-21 14:59N 45°28' E 036°38'0 0.0
2017-Oct-21 14:29N 45°28' E 036°38'0 0.1
2017-Oct-21 13:30N 45°28' E 036°39'3 6.8
2017-Oct-21 13:00N 45°31' E 036°41'4 7.4
2017-Oct-21 12:29N 45°35' E 036°44'  
2017-Oct-13 22:35N 45°31' E 036°46'1 7.1
2017-Oct-13 22:30N 45°31' E 036°46'4 7.6
2017-Oct-13 22:00N 45°28' E 036°42'4 8.0
2017-Oct-13 21:30N 45°24' E 036°41'4 7.4
2017-Oct-13 21:00N 45°21' E 036°38'4 7.4
2017-Oct-13 20:30N 45°19' E 036°33'3 6.9
2017-Oct-13 20:00N 45°17' E 036°29'4 7.2
2017-Oct-13 19:30N 45°14' E 036°29'3 6.9
2017-Oct-13 19:00N 45°10' E 036°29'4 6.5
2017-Oct-13 18:23N 45°07' E 036°32'1 1.4
2017-Oct-13 17:59N 45°06' E 036°32'0 0.0
2017-Oct-13 17:23N 45°06' E 036°32'0 0.0
2017-Oct-13 15:11N 45°06' E 036°32'0 0.1
2017-Oct-13 14:59N 45°06' E 036°32'0 0.0
2017-Oct-13 13:44N 45°06' E 036°32'0 0.1
2017-Oct-13 13:26N 45°06' E 036°32'0 0.0
2017-Oct-13 12:11N 45°06' E 036°32'0 0.0
2017-Oct-13 10:56N 45°06' E 036°32'0 0.0
2017-Oct-13 09:23N 45°06' E 036°32'0 0.0
2017-Oct-13 08:20N 45°06' E 036°32'0 0.0
2017-Oct-13 07:35N 45°06' E 036°32'0 0.0
2017-Oct-13 07:20N 45°06' E 036°32'0 0.0
2017-Oct-13 06:50N 45°06' E 036°32'0 0.0
2017-Oct-13 06:23N 45°06' E 036°32'0 0.0
2017-Oct-13 05:59N 45°06' E 036°32'0 0.0
2017-Oct-13 05:26N 45°06' E 036°32'0 0.0
2017-Oct-13 04:59N 45°06' E 036°32'0 0.0
2017-Oct-13 01:04N 45°06' E 036°32'0 0.5
2017-Oct-13 01:00N 45°06' E 036°32'1 1.4
2017-Oct-13 00:25N 45°07' E 036°33'2 4.6
2017-Oct-13 00:00N 45°09' E 036°33'0 0.4
2017-Oct-12 23:28N 45°09' E 036°33'0 0.0
2017-Oct-12 21:43N 45°09' E 036°33'0 0.0
2017-Oct-12 21:25N 45°09' E 036°33'0 0.0
2017-Oct-12 20:16N 45°09' E 036°33'0 0.0
2017-Oct-12 19:58N 45°09' E 036°33'0 0.0
2017-Oct-12 18:13N 45°09' E 036°33'0 0.0
2017-Oct-12 17:52N 45°09' E 036°33'0 0.0
2017-Oct-12 16:22N 45°09' E 036°33'0 0.0
2017-Oct-12 14:46N 45°09' E 036°33'0 0.0
2017-Oct-12 14:28N 45°09' E 036°33'0 0.0
2017-Oct-12 13:55N 45°09' E 036°33'0 0.0
2017-Oct-12 13:28N 45°09' E 036°33'  

Dump ship's entire track history